createdAt,value
2023-02-11T00:01:27.092Z,42.73
2023-02-11T00:03:54.384Z,40.20
2023-02-11T00:06:21.559Z,36.23
2023-02-11T00:08:48.741Z,32.93
2023-02-11T00:11:16.545Z,33.63
2023-02-11T00:13:44.207Z,42.17
2023-02-11T00:16:12.139Z,44.10
2023-02-11T00:18:39.292Z,43.93
2023-02-11T00:21:19.371Z,44.40
2023-02-11T00:23:46.616Z,38.43
2023-02-11T00:26:17.800Z,33.87
2023-02-11T00:28:45.037Z,34.03
2023-02-11T00:31:12.867Z,35.13
2023-02-11T00:33:40.120Z,36.40
2023-02-11T00:36:07.763Z,38.73
2023-02-11T00:38:34.896Z,36.33
2023-02-11T00:41:02.030Z,35.07
2023-02-11T00:43:29.196Z,34.07
2023-02-11T00:45:56.352Z,34.40
2023-02-11T00:48:23.539Z,32.37
2023-02-11T00:50:50.703Z,32.20
2023-02-11T00:53:17.842Z,30.30
2023-02-11T00:55:44.979Z,29.43
2023-02-11T00:58:12.165Z,25.90
2023-02-11T01:00:39.288Z,26.37
2023-02-11T01:03:06.474Z,27.57
2023-02-11T01:05:33.647Z,27.33
2023-02-11T01:08:00.783Z,31.20
2023-02-11T01:10:28.719Z,36.73
2023-02-11T01:12:56.062Z,29.43
2023-02-11T01:15:24.615Z,27.13
2023-02-11T01:17:51.787Z,28.90
2023-02-11T01:20:20.723Z,38.17
2023-02-11T01:22:47.860Z,32.27
2023-02-11T01:25:15.045Z,27.63
2023-02-11T01:27:42.275Z,27.93
2023-02-11T01:30:09.971Z,28.90
2023-02-11T01:32:37.136Z,30.50
2023-02-11T01:35:04.342Z,30.03
2023-02-11T01:37:33.541Z,29.07
2023-02-11T01:40:02.028Z,31.20
2023-02-11T01:42:29.207Z,30.27
2023-02-11T01:44:57.798Z,27.40
2023-02-11T01:47:24.929Z,27.13
2023-02-11T01:49:56.849Z,27.07
2023-02-11T01:52:23.986Z,30.20
2023-02-11T01:55:10.868Z,30.97
2023-02-11T01:57:38.821Z,32.93
2023-02-11T02:00:13.880Z,31.27
2023-02-11T02:02:47.204Z,32.87
2023-02-11T02:05:23.295Z,41.67
2023-02-11T02:07:53.243Z,33.33
2023-02-11T02:10:21.525Z,33.87
2023-02-11T02:12:48.657Z,32.67
2023-02-11T02:15:21.741Z,32.03
2023-02-11T02:17:56.910Z,28.00
2023-02-11T02:20:32.594Z,28.87
2023-02-11T02:23:04.652Z,28.87
2023-02-11T02:25:37.861Z,28.50
2023-02-11T02:28:07.786Z,23.33
2023-02-11T02:30:53.143Z,25.20
2023-02-11T02:33:39.112Z,31.50
2023-02-11T02:36:08.842Z,28.93
2023-02-11T02:38:54.800Z,37.13
2023-02-11T02:41:22.862Z,61.23
2023-02-11T02:43:50.339Z,33.37
2023-02-11T02:46:18.630Z,25.97
2023-02-11T02:48:45.798Z,32.07
2023-02-11T02:51:31.565Z,38.43
2023-02-11T02:54:04.916Z,28.40
2023-02-11T02:56:32.948Z,29.13
2023-02-11T02:59:10.540Z,29.93
2023-02-11T03:01:56.541Z,25.93
2023-02-11T03:04:27.098Z,24.63
2023-02-11T03:07:06.416Z,25.97
2023-02-11T03:09:52.245Z,25.73
2023-02-11T03:12:19.386Z,28.20
2023-02-11T03:14:46.511Z,27.63
2023-02-11T03:17:13.632Z,28.30
2023-02-11T03:19:41.882Z,27.30
2023-02-11T03:22:10.275Z,24.70
2023-02-11T03:24:37.923Z,22.23
2023-02-11T03:27:10.206Z,21.43
2023-02-11T03:29:40.058Z,22.77
2023-02-11T03:32:16.313Z,25.90
2023-02-11T03:34:48.539Z,29.10
2023-02-11T03:37:19.365Z,23.53
2023-02-11T03:39:47.742Z,25.83
2023-02-11T03:42:15.363Z,25.87
2023-02-11T03:44:47.453Z,29.13
2023-02-11T03:47:14.577Z,29.83
2023-02-11T03:49:41.721Z,28.20
2023-02-11T03:52:11.305Z,26.70
2023-02-11T03:54:38.407Z,30.37
2023-02-11T03:57:05.555Z,28.27
2023-02-11T03:59:32.698Z,26.43
2023-02-11T04:01:59.806Z,29.53
2023-02-11T04:04:27.010Z,27.87
2023-02-11T04:06:54.137Z,26.30
2023-02-11T04:09:21.665Z,26.60
2023-02-11T04:11:48.823Z,24.70
2023-02-11T04:14:15.952Z,20.80
2023-02-11T04:16:43.120Z,16.53
2023-02-11T04:19:10.358Z,16.30
2023-02-11T04:21:37.494Z,15.07
2023-02-11T04:24:04.722Z,16.47
2023-02-11T04:26:31.857Z,19.50
2023-02-11T04:28:58.988Z,21.47
2023-02-11T04:31:26.262Z,20.63
2023-02-11T04:33:53.467Z,15.80
2023-02-11T04:36:20.580Z,15.00
2023-02-11T04:38:47.750Z,14.43
2023-02-11T04:41:14.870Z,27.47
2023-02-11T04:43:42.040Z,28.23
2023-02-11T04:46:09.179Z,26.00
2023-02-11T04:48:36.395Z,24.87
2023-02-11T04:51:03.570Z,21.07
2023-02-11T04:53:30.679Z,16.97
2023-02-11T04:55:57.895Z,20.90
2023-02-11T04:58:25.052Z,18.43
2023-02-11T05:00:52.278Z,17.60
2023-02-11T05:03:19.414Z,12.70
2023-02-11T05:05:46.600Z,13.00
2023-02-11T05:08:13.765Z,14.63
2023-02-11T05:10:40.888Z,14.30
2023-02-11T05:13:08.045Z,16.70
2023-02-11T05:15:35.162Z,16.90
2023-02-11T05:18:02.287Z,14.43
2023-02-11T05:20:29.575Z,15.13
2023-02-11T05:22:56.699Z,15.70
2023-02-11T05:25:23.822Z,15.40
2023-02-11T05:27:50.959Z,15.63
2023-02-11T05:30:18.073Z,13.93
2023-02-11T05:32:45.177Z,12.37
2023-02-11T05:35:12.586Z,13.40
2023-02-11T05:37:39.844Z,15.37
2023-02-11T05:40:07.137Z,14.27
2023-02-11T05:42:34.284Z,14.60
2023-02-11T05:45:01.544Z,13.93
2023-02-11T05:47:28.674Z,14.37
2023-02-11T05:49:55.863Z,15.57
2023-02-11T05:52:23.195Z,15.23
2023-02-11T05:54:50.360Z,18.43
2023-02-11T05:57:17.584Z,13.87
2023-02-11T05:59:44.727Z,16.80
2023-02-11T06:02:11.897Z,15.40
2023-02-11T06:04:39.253Z,19.13
2023-02-11T06:07:06.380Z,17.63
2023-02-11T06:09:33.523Z,16.23
2023-02-11T06:12:00.667Z,13.83
2023-02-11T06:14:27.876Z,13.87
2023-02-11T06:16:55.059Z,12.20
2023-02-11T06:19:22.202Z,14.27
2023-02-11T06:21:49.348Z,14.87
2023-02-11T06:24:28.564Z,13.87
2023-02-11T06:27:04.179Z,14.13
2023-02-11T06:29:31.505Z,14.27
2023-02-11T06:31:58.706Z,16.03
2023-02-11T06:34:25.950Z,19.33
2023-02-11T06:36:53.063Z,17.63
2023-02-11T06:39:20.172Z,18.80
2023-02-11T06:41:47.340Z,19.27
2023-02-11T06:44:14.453Z,20.03
2023-02-11T06:46:41.667Z,14.17
2023-02-11T06:49:08.920Z,11.67
2023-02-11T06:51:36.043Z,11.63
2023-02-11T06:54:03.157Z,10.87
2023-02-11T06:56:30.412Z,10.03
2023-02-11T06:58:57.662Z,10.77
2023-02-11T07:01:25.198Z,11.37
2023-02-11T07:03:52.434Z,9.40
2023-02-11T07:06:23.411Z,9.43
2023-02-11T07:08:50.570Z,8.40
2023-02-11T07:11:24.192Z,9.47
2023-02-11T07:13:51.653Z,8.87
2023-02-11T07:16:18.924Z,9.30
2023-02-11T07:18:46.134Z,8.80
2023-02-11T07:21:14.343Z,10.53
2023-02-11T07:23:41.566Z,9.27
2023-02-11T07:26:09.361Z,10.23
2023-02-11T07:28:37.338Z,9.10
2023-02-11T07:31:11.768Z,9.27
2023-02-11T07:33:39.056Z,9.57
2023-02-11T07:36:06.725Z,10.00
2023-02-11T07:38:34.165Z,10.17
2023-02-11T07:41:01.978Z,10.17
2023-02-11T07:43:29.278Z,10.33
2023-02-11T07:45:56.427Z,11.37
2023-02-11T07:48:23.535Z,11.63
2023-02-11T07:50:50.649Z,11.03
2023-02-11T07:53:17.883Z,10.43
2023-02-11T07:55:45.022Z,14.23
2023-02-11T07:58:12.147Z,15.50
2023-02-11T08:00:39.377Z,12.67
2023-02-11T08:03:08.325Z,10.93
2023-02-11T08:05:38.389Z,10.47
2023-02-11T08:08:05.532Z,14.80
2023-02-11T08:10:32.670Z,12.07
2023-02-11T08:12:59.800Z,12.40
2023-02-11T08:15:27.010Z,10.37
2023-02-11T08:17:54.135Z,9.50
2023-02-11T08:20:21.297Z,9.53
2023-02-11T08:22:48.442Z,10.27
2023-02-11T08:25:15.631Z,10.93
2023-02-11T08:27:42.742Z,10.97
2023-02-11T08:30:10.199Z,11.43
2023-02-11T08:32:39.393Z,9.50
2023-02-11T08:35:12.419Z,10.57
2023-02-11T08:37:39.585Z,10.53
2023-02-11T08:40:06.953Z,12.60
2023-02-11T08:42:34.115Z,12.37
2023-02-11T08:45:01.267Z,13.13
2023-02-11T08:47:28.394Z,10.80
2023-02-11T08:49:55.540Z,17.83
2023-02-11T08:52:22.671Z,13.37
2023-02-11T08:54:50.825Z,12.67
2023-02-11T08:57:17.987Z,11.67
2023-02-11T08:59:45.104Z,14.70
2023-02-11T09:02:13.191Z,14.07
2023-02-11T09:04:40.423Z,15.77
2023-02-11T09:07:07.652Z,11.80
2023-02-11T09:09:34.781Z,12.10
2023-02-11T09:12:01.948Z,14.40
2023-02-11T09:14:29.109Z,12.10
2023-02-11T09:16:56.290Z,12.23
2023-02-11T09:19:23.464Z,13.67
2023-02-11T09:21:50.617Z,13.37
2023-02-11T09:24:18.412Z,13.40
2023-02-11T09:26:45.613Z,11.20
2023-02-11T09:29:12.812Z,12.03
2023-02-11T09:31:40.079Z,12.63
2023-02-11T09:34:07.301Z,11.38
2023-02-11T09:36:35.450Z,19.80
2023-02-11T09:39:02.698Z,13.50
2023-02-11T09:41:39.050Z,12.00
2023-02-11T09:44:07.143Z,12.02
2023-02-11T09:46:36.400Z,11.80
2023-02-11T09:49:04.713Z,12.00
2023-02-11T09:51:54.716Z,14.93
2023-02-11T09:54:24.431Z,13.00
2023-02-11T09:56:51.620Z,16.00
2023-02-11T09:59:20.166Z,14.18
2023-02-11T10:01:51.446Z,19.38
2023-02-11T10:04:21.634Z,13.38
2023-02-11T10:06:53.634Z,27.60
2023-02-11T10:09:36.307Z,19.35
2023-02-11T10:12:12.714Z,12.52
2023-02-11T10:14:48.720Z,17.67
2023-02-11T10:17:15.901Z,15.57
2023-02-11T10:19:46.054Z,15.70
2023-02-11T10:22:16.034Z,13.77
2023-02-11T10:24:43.413Z,12.68
2023-02-11T10:27:16.009Z,12.00
2023-02-11T10:29:45.322Z,14.52
2023-02-11T10:32:45.065Z,12.95
2023-02-11T10:35:17.893Z,15.68
2023-02-11T10:37:45.399Z,13.63
2023-02-11T10:40:16.649Z,15.32
2023-02-11T10:42:44.667Z,11.13
2023-02-11T10:45:17.765Z,12.88
2023-02-11T10:47:44.999Z,12.40
2023-02-11T10:50:18.858Z,12.80
2023-02-11T10:52:45.990Z,12.27
2023-02-11T10:55:23.328Z,12.60
2023-02-11T10:57:51.340Z,12.63
2023-02-11T11:00:18.579Z,12.95
2023-02-11T11:02:46.711Z,12.60
2023-02-11T11:05:16.945Z,13.65
2023-02-11T11:07:52.318Z,13.75
2023-02-11T11:10:31.448Z,12.30
2023-02-11T11:12:58.630Z,13.20
2023-02-11T11:15:26.711Z,13.57
2023-02-11T11:18:21.446Z,12.98
2023-02-11T11:21:11.960Z,13.32
2023-02-11T11:23:39.149Z,13.73
2023-02-11T11:26:13.190Z,12.52
2023-02-11T11:28:41.592Z,12.95
2023-02-11T11:31:18.080Z,15.50
2023-02-11T11:33:45.461Z,21.80
2023-02-11T11:36:14.623Z,16.63
2023-02-11T11:38:46.412Z,18.27
2023-02-11T11:41:14.299Z,13.60
2023-02-11T11:43:41.421Z,23.10
2023-02-11T11:46:08.564Z,13.10
2023-02-11T11:48:35.995Z,15.20
2023-02-11T11:51:04.824Z,15.32
2023-02-11T11:53:34.840Z,18.40
2023-02-11T11:56:01.988Z,14.05
2023-02-11T11:58:29.288Z,12.77
2023-02-11T12:01:15.254Z,12.07
2023-02-11T12:04:02.490Z,12.43
2023-02-11T12:06:32.379Z,14.77
2023-02-11T12:08:59.508Z,14.52
2023-02-11T12:11:27.348Z,16.25
2023-02-11T12:14:00.699Z,13.88
2023-02-11T12:16:45.636Z,15.00
2023-02-11T12:19:31.546Z,12.07
2023-02-11T12:22:04.429Z,13.43
2023-02-11T12:24:43.586Z,12.32
2023-02-11T12:27:18.587Z,17.85
2023-02-11T12:29:45.914Z,12.68
2023-02-11T12:32:31.952Z,18.17
2023-02-11T12:35:08.354Z,21.50
2023-02-11T12:37:47.510Z,18.00
2023-02-11T12:40:33.294Z,21.13
2023-02-11T12:43:18.477Z,15.98
2023-02-11T12:46:04.489Z,18.75
2023-02-11T12:48:38.067Z,18.63
2023-02-11T12:51:14.893Z,14.57
2023-02-11T12:53:48.526Z,15.98
2023-02-11T12:56:23.444Z,14.68
2023-02-11T12:58:51.342Z,13.18
2023-02-11T13:01:23.133Z,13.13
2023-02-11T13:03:50.311Z,15.77
2023-02-11T13:06:37.780Z,13.50
2023-02-11T13:09:05.566Z,15.82
2023-02-11T13:11:38.034Z,15.85
2023-02-11T13:14:07.061Z,18.48
2023-02-11T13:16:34.285Z,16.08
2023-02-11T13:19:04.377Z,15.65
2023-02-11T13:21:43.621Z,14.43
2023-02-11T13:24:13.570Z,13.88
2023-02-11T13:26:43.625Z,23.52
2023-02-11T13:29:19.471Z,17.08
2023-02-11T13:31:56.722Z,14.45
2023-02-11T13:34:47.190Z,16.85
2023-02-11T13:37:33.145Z,20.00
2023-02-11T13:40:04.493Z,16.88
2023-02-11T13:42:31.832Z,21.10
2023-02-11T13:44:59.011Z,19.38
2023-02-11T13:47:28.585Z,19.48
2023-02-11T13:49:55.683Z,18.10
2023-02-11T13:52:24.455Z,18.92
2023-02-11T13:54:52.719Z,16.93
2023-02-11T13:57:22.702Z,17.25
2023-02-11T13:59:50.605Z,31.70
2023-02-11T14:02:36.521Z,29.65
2023-02-11T14:05:22.438Z,17.73
2023-02-11T14:08:26.842Z,16.55
2023-02-11T14:10:57.499Z,14.32
2023-02-11T14:13:31.291Z,15.45
2023-02-11T14:16:17.066Z,15.00
2023-02-11T14:18:51.928Z,22.77
2023-02-11T14:21:23.061Z,18.43
2023-02-11T14:23:52.584Z,13.68
2023-02-11T14:26:22.434Z,14.00
2023-02-11T14:28:59.583Z,14.02
2023-02-11T14:31:31.356Z,13.90
2023-02-11T14:34:20.740Z,15.73
2023-02-11T14:37:06.726Z,35.78
2023-02-11T14:39:52.722Z,25.45
2023-02-11T14:42:22.424Z,32.50
2023-02-11T14:44:49.991Z,16.08
2023-02-11T14:47:18.430Z,47.30
2023-02-11T14:49:45.574Z,26.60
2023-02-11T14:52:31.573Z,27.95
2023-02-11T14:55:25.032Z,21.15
2023-02-11T14:58:05.493Z,33.72
2023-02-11T15:00:32.660Z,22.23
2023-02-11T15:02:59.842Z,25.50
2023-02-11T15:05:28.270Z,25.80
2023-02-11T15:08:04.637Z,28.75
2023-02-11T15:10:44.254Z,22.63
2023-02-11T15:13:19.026Z,16.30
2023-02-11T15:15:46.660Z,21.50
2023-02-11T15:18:24.193Z,19.07
2023-02-11T15:20:52.310Z,18.13
2023-02-11T15:23:28.879Z,17.80
2023-02-11T15:25:56.624Z,20.80
2023-02-11T15:28:23.936Z,23.63
2023-02-11T15:30:58.259Z,23.10
2023-02-11T15:33:26.054Z,25.17
2023-02-11T15:35:53.287Z,23.00
2023-02-11T15:38:21.083Z,27.33
2023-02-11T15:41:01.088Z,36.90
2023-02-11T15:43:44.124Z,29.40
2023-02-11T15:46:12.113Z,28.33
2023-02-11T15:48:42.536Z,38.13
2023-02-11T15:51:29.951Z,48.75
2023-02-11T15:53:58.462Z,41.17
2023-02-11T15:56:26.384Z,47.57
2023-02-11T15:58:55.053Z,45.80
2023-02-11T16:01:34.843Z,34.43
2023-02-11T16:04:02.175Z,43.87
2023-02-11T16:06:36.310Z,46.30
2023-02-11T16:09:10.196Z,44.95
2023-02-11T16:11:38.856Z,45.20
2023-02-11T16:14:21.020Z,47.03
2023-02-11T16:16:50.210Z,44.37
2023-02-11T16:19:22.908Z,56.23
2023-02-11T16:21:51.446Z,62.90
2023-02-11T16:24:20.182Z,113.87
2023-02-11T16:26:48.370Z,173.37
2023-02-11T16:29:21.981Z,170.50
2023-02-11T16:31:50.245Z,74.27
2023-02-11T16:34:18.504Z,77.57
2023-02-11T16:36:45.848Z,55.17
2023-02-11T16:39:13.003Z,46.13
2023-02-11T16:41:40.260Z,56.47
2023-02-11T16:44:07.560Z,62.03
2023-02-11T16:46:34.777Z,54.23
2023-02-11T16:49:06.696Z,41.80
2023-02-11T16:51:33.837Z,42.93
2023-02-11T16:54:01.243Z,37.80
2023-02-11T16:56:28.376Z,28.97
2023-02-11T16:58:55.540Z,30.97
2023-02-11T17:01:22.691Z,25.57
2023-02-11T17:03:49.957Z,23.13
2023-02-11T17:06:17.138Z,28.97
2023-02-11T17:08:44.553Z,25.20
2023-02-11T17:11:11.755Z,22.97
2023-02-11T17:13:39.596Z,18.70
2023-02-11T17:16:06.835Z,16.50
2023-02-11T17:18:34.174Z,18.77
2023-02-11T17:21:01.467Z,20.80
2023-02-11T17:23:28.592Z,19.33
2023-02-11T17:25:56.524Z,17.07
2023-02-11T17:28:23.713Z,19.07
2023-02-11T17:30:50.848Z,26.17
2023-02-11T17:33:18.939Z,20.47
2023-02-11T17:35:46.438Z,20.70
2023-02-11T17:38:13.565Z,30.60
2023-02-11T17:40:40.793Z,40.63
2023-02-11T17:43:07.978Z,48.77
2023-02-11T17:45:35.998Z,41.47
2023-02-11T17:48:03.385Z,29.53
2023-02-11T17:50:30.534Z,40.40
2023-02-11T17:52:57.710Z,23.73
2023-02-11T17:55:24.860Z,24.10
2023-02-11T17:57:52.055Z,27.37
2023-02-11T18:00:19.514Z,26.97
2023-02-11T18:02:46.763Z,26.17
2023-02-11T18:05:14.733Z,25.00
2023-02-11T18:07:42.010Z,24.13
2023-02-11T18:10:09.511Z,20.67
2023-02-11T18:12:36.645Z,23.53
2023-02-11T18:15:04.472Z,14.70
2023-02-11T18:17:31.598Z,13.63
2023-02-11T18:19:58.978Z,16.73
2023-02-11T18:22:26.207Z,20.47
2023-02-11T18:24:53.832Z,22.57
2023-02-11T18:27:21.413Z,23.70
2023-02-11T18:29:48.594Z,24.97
2023-02-11T18:32:15.769Z,21.90
2023-02-11T18:34:43.023Z,22.83
2023-02-11T18:37:10.349Z,19.10
2023-02-11T18:39:37.497Z,17.97
2023-02-11T18:42:04.722Z,19.80
2023-02-11T18:44:31.872Z,22.13
2023-02-11T18:46:59.272Z,24.57
2023-02-11T18:49:26.532Z,15.17
2023-02-11T18:51:53.800Z,20.70
2023-02-11T18:54:20.927Z,16.20
2023-02-11T18:56:48.083Z,18.30
2023-02-11T18:59:15.229Z,12.93
2023-02-11T19:01:46.661Z,16.27
2023-02-11T19:04:18.973Z,18.53
2023-02-11T19:06:47.599Z,18.40
2023-02-11T19:09:15.859Z,20.67
2023-02-11T19:11:53.935Z,24.40
2023-02-11T19:14:24.851Z,21.90
2023-02-11T19:16:52.937Z,26.00
2023-02-11T19:19:20.172Z,17.90
2023-02-11T19:21:47.543Z,20.77
2023-02-11T19:24:16.139Z,16.57
2023-02-11T19:26:43.296Z,15.03
2023-02-11T19:29:10.477Z,30.47
2023-02-11T19:31:37.782Z,21.17
2023-02-11T19:34:05.141Z,30.33
2023-02-11T19:36:32.336Z,34.20
2023-02-11T19:39:00.881Z,31.57
2023-02-11T19:41:28.422Z,24.63
2023-02-11T19:43:56.668Z,23.47
2023-02-11T19:46:24.813Z,14.37
2023-02-11T19:48:52.064Z,13.07
2023-02-11T19:51:19.320Z,12.97
2023-02-11T19:53:46.548Z,13.40
2023-02-11T19:56:13.902Z,17.27
2023-02-11T19:58:41.101Z,26.03
2023-02-11T20:01:08.887Z,27.90
2023-02-11T20:03:36.169Z,25.33
2023-02-11T20:06:07.013Z,29.93
2023-02-11T20:08:34.215Z,21.33
2023-02-11T20:11:14.298Z,15.80
2023-02-11T20:13:41.473Z,20.87
2023-02-11T20:16:12.682Z,23.97
2023-02-11T20:18:40.501Z,20.83
2023-02-11T20:21:08.429Z,23.87
2023-02-11T20:23:35.898Z,25.97
2023-02-11T20:26:09.159Z,25.27
2023-02-11T20:28:36.504Z,39.40
2023-02-11T20:31:03.898Z,41.50
2023-02-11T20:33:31.302Z,31.93
2023-02-11T20:36:02.179Z,33.90
2023-02-11T20:38:29.357Z,137.90
2023-02-11T20:40:56.570Z,110.97
2023-02-11T20:43:23.737Z,102.57
2023-02-11T20:45:51.124Z,99.10
2023-02-11T20:48:18.428Z,89.27
2023-02-11T20:50:48.282Z,201.80
2023-02-11T20:53:15.703Z,119.03
2023-02-11T20:55:42.863Z,96.20
2023-02-11T20:58:10.004Z,85.43
2023-02-11T21:00:37.327Z,113.77
2023-02-11T21:03:05.133Z,117.97
2023-02-11T21:05:32.334Z,122.57
2023-02-11T21:07:59.485Z,159.37
2023-02-11T21:10:27.373Z,244.03
2023-02-11T21:12:54.571Z,106.47
2023-02-11T21:15:23.852Z,91.83
2023-02-11T21:17:51.396Z,130.07
2023-02-11T21:20:18.964Z,115.33
2023-02-11T21:22:46.131Z,87.33
2023-02-11T21:25:13.329Z,134.33
2023-02-11T21:27:40.494Z,119.20
2023-02-11T21:30:08.076Z,92.00
2023-02-11T21:32:35.233Z,63.47
2023-02-11T21:35:02.568Z,71.77
2023-02-11T21:37:30.018Z,50.57
2023-02-11T21:39:57.206Z,47.37
2023-02-11T21:42:24.420Z,91.60
2023-02-11T21:44:51.569Z,129.97
2023-02-11T21:47:18.716Z,94.07
2023-02-11T21:49:45.899Z,48.43
2023-02-11T21:52:13.054Z,31.97
2023-02-11T21:54:40.263Z,24.13
2023-02-11T21:57:07.388Z,28.03
2023-02-11T21:59:34.566Z,21.57
2023-02-11T22:02:01.701Z,16.20
2023-02-11T22:04:28.945Z,15.93
2023-02-11T22:06:56.130Z,21.73
2023-02-11T22:09:23.274Z,27.93
2023-02-11T22:11:50.634Z,24.43
2023-02-11T22:14:17.838Z,37.77
2023-02-11T22:16:45.823Z,34.23
2023-02-11T22:19:13.027Z,25.97
2023-02-11T22:21:40.169Z,34.43
2023-02-11T22:24:07.594Z,33.07
2023-02-11T22:26:34.741Z,24.00
2023-02-11T22:29:02.049Z,18.57
2023-02-11T22:31:30.194Z,19.37
2023-02-11T22:33:57.687Z,17.17
2023-02-11T22:36:25.747Z,19.67
2023-02-11T22:38:52.952Z,22.70
2023-02-11T22:41:20.332Z,19.90
2023-02-11T22:43:47.523Z,36.67
2023-02-11T22:46:15.617Z,23.13
2023-02-11T22:48:42.828Z,25.90
2023-02-11T22:51:14.045Z,23.60
2023-02-11T22:53:42.168Z,47.83
2023-02-11T22:56:09.927Z,28.67
2023-02-11T22:58:37.158Z,34.60
2023-02-11T23:01:04.958Z,31.27
2023-02-11T23:03:32.313Z,29.43
2023-02-11T23:05:59.739Z,30.37
2023-02-11T23:08:27.407Z,31.53
2023-02-11T23:10:54.537Z,30.07
2023-02-11T23:13:21.684Z,11.23
2023-02-11T23:15:48.878Z,17.63
2023-02-11T23:18:15.991Z,14.37
2023-02-11T23:20:43.626Z,14.73
2023-02-11T23:23:10.814Z,21.40
2023-02-11T23:25:41.696Z,11.67
2023-02-11T23:28:08.855Z,11.67
2023-02-11T23:30:36.015Z,13.63
2023-02-11T23:33:03.162Z,16.80
2023-02-11T23:35:30.308Z,16.93
2023-02-11T23:37:57.466Z,22.53
2023-02-11T23:40:24.596Z,15.73
2023-02-11T23:42:51.700Z,10.63
2023-02-11T23:45:19.102Z,14.27
2023-02-11T23:47:47.582Z,21.30
2023-02-11T23:50:14.730Z,17.70
2023-02-11T23:52:41.897Z,12.90
2023-02-11T23:55:09.039Z,14.43
2023-02-11T23:57:36.266Z,13.70
